createdAt,value
2023-10-29T00:01:21.635Z,2.17
2023-10-29T00:03:50.066Z,1.90
2023-10-29T00:06:18.245Z,1.70
2023-10-29T00:08:46.351Z,2.00
2023-10-29T00:11:14.544Z,1.80
2023-10-29T00:13:42.691Z,2.00
2023-10-29T00:16:12.271Z,1.67
2023-10-29T00:18:40.682Z,1.70
2023-10-29T00:21:09.094Z,2.10
2023-10-29T00:23:37.477Z,1.77
2023-10-29T00:26:05.279Z,1.93
2023-10-29T00:28:33.474Z,1.90
2023-10-29T00:31:01.593Z,1.93
2023-10-29T00:33:29.667Z,2.53
2023-10-29T00:35:57.942Z,1.50
2023-10-29T00:38:26.636Z,1.67
2023-10-29T00:40:54.707Z,1.70
2023-10-29T00:43:22.795Z,1.83
2023-10-29T00:45:54.301Z,1.77
2023-10-29T00:48:22.839Z,1.83
2023-10-29T00:50:51.659Z,1.67
2023-10-29T00:53:20.159Z,2.30
2023-10-29T00:55:48.785Z,1.67
2023-10-29T00:58:17.754Z,2.10
2023-10-29T01:00:45.824Z,1.80
2023-10-29T01:03:14.096Z,2.00
2023-10-29T01:05:42.580Z,1.87
2023-10-29T01:08:10.821Z,1.93
2023-10-29T01:10:39.651Z,2.13
2023-10-29T01:13:07.984Z,1.70
2023-10-29T01:15:36.469Z,1.93
2023-10-29T01:18:05.191Z,1.93
2023-10-29T01:20:33.453Z,1.80
2023-10-29T01:23:01.652Z,2.00
2023-10-29T01:25:30.430Z,1.60
2023-10-29T01:27:59.405Z,1.80
2023-10-29T01:30:27.599Z,1.90
2023-10-29T01:32:55.832Z,1.70
2023-10-29T01:35:24.210Z,1.77
2023-10-29T01:37:52.502Z,2.03
2023-10-29T01:40:20.647Z,1.87
2023-10-29T01:42:49.808Z,1.53
2023-10-29T01:45:19.003Z,1.80
2023-10-29T01:47:47.224Z,1.90
2023-10-29T01:50:16.504Z,1.80
2023-10-29T01:52:44.571Z,1.80
2023-10-29T01:55:12.670Z,2.10
2023-10-29T01:57:43.162Z,2.00
2023-10-29T02:00:12.050Z,1.60
2023-10-29T02:02:40.613Z,1.90
2023-10-29T02:05:09.176Z,1.80
2023-10-29T02:07:37.502Z,1.90
2023-10-29T02:10:06.066Z,2.10
2023-10-29T02:12:34.400Z,1.97
2023-10-29T02:15:03.247Z,1.70
2023-10-29T02:17:31.594Z,1.70
2023-10-29T02:19:59.812Z,1.80
2023-10-29T02:22:29.173Z,1.57
2023-10-29T02:24:57.402Z,1.80
2023-10-29T02:27:25.639Z,1.60
2023-10-29T02:29:55.553Z,1.77
2023-10-29T02:32:23.970Z,1.93
2023-10-29T02:34:52.353Z,1.80
2023-10-29T02:37:21.158Z,1.97
2023-10-29T02:39:49.538Z,1.93
2023-10-29T02:42:18.480Z,2.00
2023-10-29T02:44:47.002Z,1.57
2023-10-29T02:47:15.508Z,1.80
2023-10-29T02:49:43.646Z,1.63
2023-10-29T02:52:11.778Z,2.17
2023-10-29T02:54:39.947Z,1.70
2023-10-29T02:57:08.225Z,1.70
2023-10-29T02:59:36.438Z,1.80
2023-10-29T03:02:04.662Z,1.90
2023-10-29T03:04:32.870Z,1.67
2023-10-29T03:07:01.010Z,1.90
2023-10-29T03:09:29.172Z,1.50
2023-10-29T03:11:57.411Z,1.87
2023-10-29T03:14:25.664Z,1.63
2023-10-29T03:16:53.805Z,1.60
2023-10-29T03:19:22.056Z,1.73
2023-10-29T03:21:50.438Z,1.40
2023-10-29T03:24:18.876Z,1.60
2023-10-29T03:26:46.977Z,1.93
2023-10-29T03:29:15.113Z,1.73
2023-10-29T03:31:43.262Z,1.43
2023-10-29T03:34:12.906Z,1.67
2023-10-29T03:36:40.956Z,1.90
2023-10-29T03:39:09.172Z,1.67
2023-10-29T03:41:37.672Z,1.50
2023-10-29T03:44:05.897Z,1.63
2023-10-29T03:46:33.954Z,1.73
2023-10-29T03:49:02.149Z,1.77
2023-10-29T03:51:30.264Z,1.50
2023-10-29T03:53:58.509Z,1.80
2023-10-29T03:56:26.683Z,1.60
2023-10-29T03:58:54.839Z,1.73
2023-10-29T04:01:23.692Z,1.40
2023-10-29T04:03:51.962Z,1.93
2023-10-29T04:06:20.241Z,1.90
2023-10-29T04:08:48.407Z,1.60
2023-10-29T04:11:16.699Z,1.20
2023-10-29T04:13:45.494Z,1.80
2023-10-29T04:16:13.670Z,2.10
2023-10-29T04:18:41.885Z,1.63
2023-10-29T04:21:09.979Z,1.50
2023-10-29T04:23:38.549Z,1.67
2023-10-29T04:26:06.412Z,2.00
2023-10-29T04:28:34.545Z,1.60
2023-10-29T04:31:02.902Z,1.53
2023-10-29T04:33:31.134Z,1.90
2023-10-29T04:35:59.311Z,1.40
2023-10-29T04:38:27.687Z,1.37
2023-10-29T04:40:55.816Z,1.73
2023-10-29T04:43:23.880Z,2.10
2023-10-29T04:45:51.993Z,1.47
2023-10-29T04:48:20.438Z,1.90
2023-10-29T04:50:48.629Z,1.80
2023-10-29T04:53:16.726Z,2.20
2023-10-29T04:55:45.354Z,1.60
2023-10-29T04:58:13.429Z,1.87
2023-10-29T05:00:41.703Z,1.70
2023-10-29T05:03:09.988Z,2.17
2023-10-29T05:05:38.306Z,2.17
2023-10-29T05:08:07.420Z,1.70
2023-10-29T05:10:35.722Z,1.43
2023-10-29T05:13:03.889Z,1.80
2023-10-29T05:15:32.366Z,1.63
2023-10-29T05:18:00.535Z,1.47
2023-10-29T05:20:31.320Z,1.80
2023-10-29T05:22:59.841Z,1.60
2023-10-29T05:25:28.063Z,1.67
2023-10-29T05:27:57.528Z,1.80
2023-10-29T05:30:25.899Z,1.50
2023-10-29T05:32:54.192Z,1.90
2023-10-29T05:35:23.063Z,1.60
2023-10-29T05:37:51.335Z,1.87
2023-10-29T05:40:18.581Z,1.60
2023-10-29T05:42:46.850Z,1.40
2023-10-29T05:45:14.968Z,1.40
2023-10-29T05:47:43.305Z,1.40
2023-10-29T05:50:11.841Z,1.60
2023-10-29T05:52:40.860Z,1.53
2023-10-29T05:55:08.766Z,1.80
2023-10-29T05:57:36.965Z,1.50
2023-10-29T06:00:05.313Z,1.70
2023-10-29T06:02:34.393Z,1.50
2023-10-29T06:05:02.843Z,1.50
2023-10-29T06:07:31.060Z,2.00
2023-10-29T06:09:59.228Z,1.60
2023-10-29T06:12:27.939Z,1.77
2023-10-29T06:14:56.197Z,1.60
2023-10-29T06:17:27.268Z,1.47
2023-10-29T06:19:55.756Z,1.73
2023-10-29T06:22:23.967Z,1.70
2023-10-29T06:24:52.180Z,1.60
2023-10-29T06:27:20.337Z,1.70
2023-10-29T06:29:48.583Z,1.60
2023-10-29T06:32:16.833Z,1.77
2023-10-29T06:34:45.003Z,1.50
2023-10-29T06:37:13.361Z,1.50
2023-10-29T06:39:41.654Z,1.43
2023-10-29T06:42:10.019Z,1.50
2023-10-29T06:44:38.283Z,2.03
2023-10-29T06:47:07.014Z,1.97
2023-10-29T06:49:35.226Z,1.97
2023-10-29T06:52:03.413Z,1.60
2023-10-29T06:54:32.190Z,1.43
2023-10-29T06:57:02.089Z,1.80
2023-10-29T06:59:32.221Z,2.10
2023-10-29T07:02:00.509Z,5.17
2023-10-29T07:04:29.150Z,2.27
2023-10-29T07:06:57.469Z,1.37
2023-10-29T07:09:25.649Z,1.50
2023-10-29T07:11:56.839Z,1.63
2023-10-29T07:14:25.221Z,1.37
2023-10-29T07:16:53.377Z,1.60
2023-10-29T07:19:21.672Z,1.40
2023-10-29T07:21:49.881Z,1.60
2023-10-29T07:24:17.985Z,1.57
2023-10-29T07:26:46.244Z,1.47
2023-10-29T07:29:14.964Z,1.27
2023-10-29T07:31:43.841Z,1.40
2023-10-29T07:34:12.103Z,1.33
2023-10-29T07:36:40.333Z,1.97
2023-10-29T07:39:08.563Z,1.20
2023-10-29T07:41:36.756Z,1.30
2023-10-29T07:44:05.163Z,1.17
2023-10-29T07:46:33.503Z,1.30
2023-10-29T07:49:01.721Z,1.27
2023-10-29T07:51:30.268Z,1.30
2023-10-29T07:54:00.672Z,1.20
2023-10-29T07:56:29.503Z,1.50
2023-10-29T07:58:57.691Z,1.13
2023-10-29T08:01:25.926Z,1.10
2023-10-29T08:03:57.290Z,1.20
2023-10-29T08:06:25.588Z,1.50
2023-10-29T08:08:55.182Z,1.20
2023-10-29T08:11:23.715Z,1.23
2023-10-29T08:13:52.373Z,1.20
2023-10-29T08:16:21.052Z,1.10
2023-10-29T08:18:48.947Z,1.00
2023-10-29T08:21:18.500Z,2.80
2023-10-29T08:23:46.727Z,2.53
2023-10-29T08:26:15.220Z,1.50
2023-10-29T08:28:43.497Z,1.40
2023-10-29T08:31:11.681Z,1.00
2023-10-29T08:33:40.044Z,1.30
2023-10-29T08:36:08.103Z,1.20
2023-10-29T08:38:36.833Z,1.20
2023-10-29T08:41:15.332Z,1.40
2023-10-29T08:43:43.700Z,1.17
2023-10-29T08:46:11.920Z,1.40
2023-10-29T08:48:40.422Z,1.37
2023-10-29T08:51:08.824Z,1.37
2023-10-29T08:53:37.085Z,1.37
2023-10-29T08:56:06.210Z,1.70
2023-10-29T08:58:36.495Z,1.30
2023-10-29T09:01:08.672Z,1.30
2023-10-29T09:03:37.644Z,1.40
2023-10-29T09:06:06.187Z,1.30
2023-10-29T09:08:35.631Z,1.10
2023-10-29T09:11:03.958Z,1.13
2023-10-29T09:13:32.253Z,1.00
2023-10-29T09:16:01.177Z,1.10
2023-10-29T09:18:30.183Z,1.30
2023-10-29T09:20:58.619Z,1.30
2023-10-29T09:23:26.877Z,1.10
2023-10-29T09:25:55.138Z,1.43
2023-10-29T09:28:23.262Z,1.50
2023-10-29T09:30:53.073Z,1.20
2023-10-29T09:33:21.444Z,1.30
2023-10-29T09:35:50.173Z,1.40
2023-10-29T09:38:21.497Z,1.20
2023-10-29T09:40:54.388Z,1.07
2023-10-29T09:43:28.281Z,1.20
2023-10-29T09:45:57.615Z,1.40
2023-10-29T09:48:26.528Z,1.20
2023-10-29T09:50:55.047Z,1.17
2023-10-29T09:53:24.830Z,1.40
2023-10-29T09:55:54.625Z,1.20
2023-10-29T09:58:25.019Z,1.00
2023-10-29T10:00:53.590Z,1.00
2023-10-29T10:03:21.975Z,1.20
2023-10-29T10:05:50.395Z,1.20
2023-10-29T10:08:31.807Z,1.23
2023-10-29T10:11:00.800Z,1.20
2023-10-29T10:13:38.342Z,1.43
2023-10-29T10:16:15.841Z,1.17
2023-10-29T10:18:57.254Z,1.37
2023-10-29T10:21:27.374Z,1.40
2023-10-29T10:23:57.573Z,1.30
2023-10-29T10:26:35.096Z,1.27
2023-10-29T10:29:08.315Z,1.10
2023-10-29T10:31:37.071Z,1.13
2023-10-29T10:34:12.510Z,1.27
2023-10-29T10:36:40.938Z,1.00
2023-10-29T10:39:09.399Z,1.30
2023-10-29T10:41:45.293Z,1.23
2023-10-29T10:44:13.560Z,1.17
2023-10-29T10:46:57.574Z,1.10
2023-10-29T10:49:26.074Z,1.10
2023-10-29T10:51:57.074Z,1.27
2023-10-29T10:54:25.787Z,2.03
2023-10-29T10:56:58.315Z,2.27
2023-10-29T10:59:26.613Z,1.20
2023-10-29T11:01:54.951Z,1.47
2023-10-29T11:04:27.834Z,1.23
2023-10-29T11:06:56.193Z,1.17
2023-10-29T11:09:24.784Z,1.00
2023-10-29T11:11:57.355Z,1.20
2023-10-29T11:14:26.578Z,1.00
2023-10-29T11:16:59.850Z,1.30
2023-10-29T11:19:47.961Z,1.17
2023-10-29T11:22:20.526Z,1.13
2023-10-29T11:25:09.227Z,1.30
2023-10-29T11:27:44.414Z,0.90
2023-10-29T11:30:23.809Z,1.20
2023-10-29T11:33:09.761Z,0.90
2023-10-29T11:35:38.388Z,1.30
2023-10-29T11:38:32.575Z,1.00
2023-10-29T11:41:00.799Z,1.07
2023-10-29T11:43:28.858Z,1.00
2023-10-29T11:46:06.281Z,1.07
2023-10-29T11:48:34.882Z,0.93
2023-10-29T11:51:04.826Z,0.90
2023-10-29T11:53:33.439Z,1.10
2023-10-29T11:56:11.269Z,1.00
2023-10-29T11:58:39.780Z,1.10
2023-10-29T12:01:08.110Z,1.00
2023-10-29T12:03:36.559Z,1.10
2023-10-29T12:06:04.995Z,1.17
2023-10-29T12:08:34.505Z,1.10
2023-10-29T12:11:02.694Z,0.97
2023-10-29T12:13:43.542Z,0.90
2023-10-29T12:16:13.242Z,1.20
2023-10-29T12:18:42.582Z,1.00
2023-10-29T12:21:13.486Z,0.90
2023-10-29T12:23:41.722Z,1.00
2023-10-29T12:26:11.830Z,1.20
2023-10-29T12:28:40.119Z,1.00
2023-10-29T12:31:10.822Z,1.20
2023-10-29T12:33:39.985Z,1.23
2023-10-29T12:36:16.628Z,1.23
2023-10-29T12:38:44.975Z,1.10
2023-10-29T12:41:15.287Z,1.10
2023-10-29T12:43:48.258Z,1.00
2023-10-29T12:46:19.954Z,1.10
2023-10-29T12:49:05.922Z,1.00
2023-10-29T12:51:34.330Z,1.00
2023-10-29T12:54:18.461Z,1.03
2023-10-29T12:56:53.247Z,1.00
2023-10-29T12:59:27.744Z,1.03
2023-10-29T13:02:05.433Z,1.00
2023-10-29T13:04:34.124Z,1.10
2023-10-29T13:07:08.685Z,0.90
2023-10-29T13:09:39.344Z,0.90
2023-10-29T13:12:08.977Z,1.30
2023-10-29T13:14:37.834Z,1.20
2023-10-29T13:17:07.069Z,1.10
2023-10-29T13:19:36.389Z,1.20
2023-10-29T13:22:07.023Z,1.00
2023-10-29T13:24:35.206Z,0.90
2023-10-29T13:27:03.489Z,1.00
2023-10-29T13:29:31.769Z,1.00
2023-10-29T13:31:59.925Z,0.90
2023-10-29T13:34:29.166Z,1.00
2023-10-29T13:36:57.324Z,1.20
2023-10-29T13:39:25.478Z,1.10
2023-10-29T13:41:53.745Z,1.20
2023-10-29T13:44:21.893Z,0.90
2023-10-29T13:46:50.166Z,0.80
2023-10-29T13:49:18.362Z,0.90
2023-10-29T13:51:47.920Z,1.40
2023-10-29T13:54:16.352Z,1.07
2023-10-29T13:56:44.708Z,0.80
2023-10-29T13:59:13.049Z,1.00
2023-10-29T14:01:41.350Z,1.07
2023-10-29T14:04:09.687Z,1.23
2023-10-29T14:06:37.824Z,1.00
2023-10-29T14:09:05.885Z,0.90
2023-10-29T14:11:34.025Z,1.10
2023-10-29T14:14:02.261Z,0.97
2023-10-29T14:16:40.898Z,1.00
2023-10-29T14:19:09.838Z,1.00
2023-10-29T14:21:38.564Z,1.20
2023-10-29T14:24:08.826Z,1.33
2023-10-29T14:26:38.556Z,1.27
2023-10-29T14:29:06.901Z,0.87
2023-10-29T14:31:37.197Z,1.10
2023-10-29T14:34:05.756Z,1.00
2023-10-29T14:36:34.482Z,1.20
2023-10-29T14:39:03.038Z,1.50
2023-10-29T14:41:31.273Z,1.30
2023-10-29T14:43:59.454Z,1.37
2023-10-29T14:46:27.648Z,1.30
2023-10-29T14:48:56.093Z,1.20
2023-10-29T14:51:24.557Z,1.17
2023-10-29T14:53:52.737Z,1.20
2023-10-29T14:56:23.257Z,1.10
2023-10-29T14:58:51.449Z,1.10
2023-10-29T15:01:19.733Z,1.20
2023-10-29T15:03:49.001Z,1.30
2023-10-29T15:06:17.537Z,1.60
2023-10-29T15:08:45.692Z,1.27
2023-10-29T15:11:26.203Z,1.27
2023-10-29T15:14:03.021Z,1.30
2023-10-29T15:16:31.169Z,1.13
2023-10-29T15:18:59.311Z,1.20
2023-10-29T15:21:27.572Z,1.13
2023-10-29T15:23:55.793Z,1.47
2023-10-29T15:26:25.401Z,1.10
2023-10-29T15:28:53.712Z,1.27
2023-10-29T15:31:22.112Z,1.57
2023-10-29T15:33:50.296Z,1.30
2023-10-29T15:36:19.115Z,1.40
2023-10-29T15:38:47.510Z,1.20
2023-10-29T15:41:16.712Z,1.70
2023-10-29T15:43:44.824Z,1.53
2023-10-29T15:46:13.640Z,1.50
2023-10-29T15:48:41.983Z,1.40
2023-10-29T15:51:09.775Z,1.40
2023-10-29T15:53:38.283Z,1.30
2023-10-29T15:56:12.743Z,1.30
2023-10-29T15:58:40.860Z,1.40
2023-10-29T16:01:18.759Z,1.60
2023-10-29T16:03:47.361Z,1.50
2023-10-29T16:06:15.756Z,1.30
2023-10-29T16:08:44.104Z,1.50
2023-10-29T16:11:12.420Z,1.17
2023-10-29T16:13:41.763Z,1.80
2023-10-29T16:16:10.490Z,1.60
2023-10-29T16:18:38.825Z,1.83
2023-10-29T16:21:07.668Z,1.70
2023-10-29T16:23:35.867Z,1.60
2023-10-29T16:26:03.989Z,1.70
2023-10-29T16:28:32.162Z,1.60
2023-10-29T16:31:00.301Z,1.53
2023-10-29T16:33:28.542Z,1.70
2023-10-29T16:35:58.015Z,1.40
2023-10-29T16:38:27.819Z,1.50
2023-10-29T16:40:57.932Z,1.53
2023-10-29T16:43:26.836Z,1.50
2023-10-29T16:45:55.098Z,1.47
2023-10-29T16:48:23.784Z,1.40
2023-10-29T16:51:02.923Z,1.60
2023-10-29T16:53:32.095Z,1.80
2023-10-29T16:56:12.105Z,1.30
2023-10-29T16:58:41.456Z,1.40
2023-10-29T17:01:13.523Z,1.10
2023-10-29T17:03:42.883Z,1.60
2023-10-29T17:06:11.409Z,1.13
2023-10-29T17:08:39.814Z,1.50
2023-10-29T17:11:07.999Z,1.60
2023-10-29T17:13:36.213Z,1.20
2023-10-29T17:16:05.381Z,1.33
2023-10-29T17:18:34.302Z,1.80
2023-10-29T17:21:03.172Z,1.30
2023-10-29T17:23:31.691Z,1.60
2023-10-29T17:26:01.327Z,1.67
2023-10-29T17:28:29.624Z,1.30
2023-10-29T17:30:57.447Z,1.47
2023-10-29T17:33:25.701Z,1.37
2023-10-29T17:35:53.833Z,1.80
2023-10-29T17:38:22.043Z,1.40
2023-10-29T17:40:50.223Z,1.57
2023-10-29T17:43:18.637Z,2.10
2023-10-29T17:45:48.525Z,1.80
2023-10-29T17:48:16.839Z,1.43
2023-10-29T17:50:45.112Z,1.77
2023-10-29T17:53:13.252Z,1.30
2023-10-29T17:55:41.385Z,1.70
2023-10-29T17:58:09.968Z,1.70
2023-10-29T18:00:38.168Z,1.60
2023-10-29T18:03:06.840Z,1.50
2023-10-29T18:05:35.082Z,1.90
2023-10-29T18:08:03.196Z,1.97
2023-10-29T18:10:31.332Z,1.97
2023-10-29T18:12:59.571Z,3.63
2023-10-29T18:15:27.720Z,3.30
2023-10-29T18:17:55.956Z,2.37
2023-10-29T18:20:24.110Z,2.60
2023-10-29T18:22:52.289Z,2.37
2023-10-29T18:25:20.417Z,2.67
2023-10-29T18:27:48.805Z,2.67
2023-10-29T18:30:17.595Z,2.73
2023-10-29T18:32:46.389Z,2.70
2023-10-29T18:35:14.568Z,2.30
2023-10-29T18:37:46.816Z,2.73
2023-10-29T18:40:14.955Z,2.50
2023-10-29T18:42:43.084Z,3.07
2023-10-29T18:45:11.165Z,2.80
2023-10-29T18:47:40.887Z,2.90
2023-10-29T18:50:09.144Z,2.67
2023-10-29T18:52:40.034Z,3.13
2023-10-29T18:55:08.613Z,2.90
2023-10-29T18:57:36.794Z,3.03
2023-10-29T19:00:05.849Z,1.93
2023-10-29T19:02:34.054Z,2.73
2023-10-29T19:05:02.197Z,1.70
2023-10-29T19:07:30.400Z,2.03
2023-10-29T19:09:59.993Z,1.90
2023-10-29T19:12:28.282Z,2.13
2023-10-29T19:14:56.658Z,1.77
2023-10-29T19:17:24.801Z,1.60
2023-10-29T19:19:53.344Z,1.80
2023-10-29T19:22:21.558Z,1.67
2023-10-29T19:24:49.910Z,2.03
2023-10-29T19:27:18.161Z,1.33
2023-10-29T19:29:46.502Z,1.43
2023-10-29T19:32:14.804Z,1.40
2023-10-29T19:34:42.892Z,1.90
2023-10-29T19:37:11.081Z,1.70
2023-10-29T19:39:39.301Z,2.97
2023-10-29T19:42:07.529Z,1.50
2023-10-29T19:44:35.724Z,1.57
2023-10-29T19:47:04.005Z,1.63
2023-10-29T19:49:32.319Z,1.50
2023-10-29T19:52:00.591Z,2.17
2023-10-29T19:54:28.843Z,2.00
2023-10-29T19:56:58.310Z,2.20
2023-10-29T19:59:26.530Z,1.90
2023-10-29T20:01:54.665Z,2.00
2023-10-29T20:04:23.936Z,3.07
2023-10-29T20:06:52.123Z,1.47
2023-10-29T20:09:20.560Z,1.57
2023-10-29T20:11:48.808Z,1.73
2023-10-29T20:14:16.952Z,1.90
2023-10-29T20:16:46.278Z,1.70
2023-10-29T20:19:14.483Z,1.67
2023-10-29T20:21:42.769Z,1.83
2023-10-29T20:24:11.058Z,1.30
2023-10-29T20:26:41.199Z,1.90
2023-10-29T20:29:09.704Z,1.63
2023-10-29T20:31:37.903Z,1.40
2023-10-29T20:34:05.970Z,3.10
2023-10-29T20:36:34.170Z,1.70
2023-10-29T20:39:02.477Z,1.80
2023-10-29T20:41:30.819Z,2.77
2023-10-29T20:43:59.117Z,1.67
2023-10-29T20:46:27.793Z,1.70
2023-10-29T20:48:57.498Z,1.87
2023-10-29T20:51:26.227Z,1.40
2023-10-29T20:53:54.545Z,1.60
2023-10-29T20:56:23.642Z,2.80
2023-10-29T20:58:52.571Z,1.40
2023-10-29T21:01:20.736Z,1.50
2023-10-29T21:03:49.079Z,1.27
2023-10-29T21:06:17.426Z,1.37
2023-10-29T21:08:45.640Z,1.93
2023-10-29T21:11:16.968Z,1.70
2023-10-29T21:13:47.147Z,1.60
2023-10-29T21:16:16.745Z,1.30
2023-10-29T21:18:45.112Z,1.60
2023-10-29T21:21:13.335Z,1.50
2023-10-29T21:23:41.819Z,1.30
2023-10-29T21:26:09.700Z,1.40
2023-10-29T21:28:37.990Z,1.23
2023-10-29T21:31:08.395Z,1.60
2023-10-29T21:33:36.671Z,1.40
2023-10-29T21:36:10.248Z,1.20
2023-10-29T21:38:39.051Z,1.40
2023-10-29T21:41:12.716Z,1.30
2023-10-29T21:43:41.323Z,1.50
2023-10-29T21:46:09.830Z,1.40
2023-10-29T21:48:38.346Z,1.73
2023-10-29T21:51:07.828Z,1.30
2023-10-29T21:53:36.758Z,1.63
2023-10-29T21:56:06.939Z,1.33
2023-10-29T21:58:35.460Z,1.50
2023-10-29T22:01:04.157Z,1.60
2023-10-29T22:03:34.357Z,1.70
2023-10-29T22:06:05.224Z,1.30
2023-10-29T22:08:33.507Z,1.30
2023-10-29T22:11:06.784Z,1.20
2023-10-29T22:13:38.476Z,1.40
2023-10-29T22:16:07.662Z,1.03
2023-10-29T22:18:36.211Z,1.30
2023-10-29T22:21:05.750Z,1.30
2023-10-29T22:23:34.022Z,1.70
2023-10-29T22:26:02.586Z,1.07
2023-10-29T22:28:30.768Z,1.50
2023-10-29T22:31:00.121Z,1.40
2023-10-29T22:33:30.084Z,1.60
2023-10-29T22:36:07.073Z,1.30
2023-10-29T22:38:35.368Z,1.00
2023-10-29T22:41:08.515Z,0.90
2023-10-29T22:43:37.146Z,1.00
2023-10-29T22:46:05.534Z,1.10
2023-10-29T22:48:33.848Z,1.50
2023-10-29T22:51:05.331Z,1.10
2023-10-29T22:53:33.612Z,1.20
2023-10-29T22:56:01.949Z,0.90
2023-10-29T22:58:30.129Z,1.20
2023-10-29T23:00:58.804Z,1.07
2023-10-29T23:03:29.879Z,1.23
2023-10-29T23:05:58.370Z,1.20
2023-10-29T23:08:26.551Z,1.00
2023-10-29T23:10:56.873Z,0.90
2023-10-29T23:13:26.294Z,0.73
2023-10-29T23:15:56.310Z,1.03
2023-10-29T23:18:25.658Z,1.23
2023-10-29T23:20:54.306Z,0.97
2023-10-29T23:23:23.515Z,0.90
2023-10-29T23:25:52.067Z,0.83
2023-10-29T23:28:30.940Z,0.73
2023-10-29T23:31:05.210Z,1.00
2023-10-29T23:33:33.914Z,1.27
2023-10-29T23:36:02.109Z,0.70
2023-10-29T23:38:30.225Z,0.83
2023-10-29T23:40:59.379Z,0.87
2023-10-29T23:43:29.969Z,0.83
2023-10-29T23:45:58.334Z,0.90
2023-10-29T23:48:27.036Z,1.03
2023-10-29T23:50:55.265Z,0.87
2023-10-29T23:53:23.421Z,0.80
2023-10-29T23:55:51.540Z,1.00
2023-10-29T23:58:20.340Z,0.93
